Ballonweer?

Available data for EHGG from the past 2 hours
GRONINGEN/EELDE
Metar
EHGG 172325Z AUTO 13003KT 100V160 3500 BR NCD M03/M04 Q1026

23:25 UTC

Wind: 130° 3kt

Visibility: 3500 m

Sky:

Temp: -3 deg C / 26.6 deg F

Dewpoint: -4 deg C / 24.8 deg F

Pressure: 1026 hPa

TAF
TAF EHGG 171623Z 1718/1824 12005KT CAVOK BECMG 1720/1723 4000 MIFG BR TEMPO 1722/1809 0700 BCFG PROB30 1800/1809 0300 FG FZFG BECMG 1807/1810 CAVOK PROB40 1821/1824 3000 BR MIFG

Buienradar (tot 2 uur vooruit)

 

KNMI weerbulletin kleine luchtvaart

Klik hier om het weerbulletin te openen in een nieuw tabblad.